createdAt,value
2023-04-21T00:01:42.207Z,84.81
2023-04-21T00:04:13.761Z,82.94
2023-04-21T00:06:42.144Z,85.25
2023-04-21T00:09:11.378Z,84.86
2023-04-21T00:11:39.428Z,83.42
2023-04-21T00:14:07.536Z,85.58
2023-04-21T00:16:35.997Z,87.32
2023-04-21T00:19:07.305Z,84.31
2023-04-21T00:21:36.468Z,80.40
2023-04-21T00:24:04.712Z,80.06
2023-04-21T00:26:32.834Z,85.62
2023-04-21T00:29:01.398Z,83.71
2023-04-21T00:31:31.737Z,84.39
2023-04-21T00:33:59.962Z,86.49
2023-04-21T00:36:28.772Z,84.08
2023-04-21T00:38:56.768Z,82.18
2023-04-21T00:41:24.820Z,84.56
2023-04-21T00:44:07.199Z,83.41
2023-04-21T00:46:35.768Z,83.44
2023-04-21T00:49:06.127Z,81.77
2023-04-21T00:51:35.333Z,81.22
2023-04-21T00:54:05.618Z,81.13
2023-04-21T00:56:36.243Z,84.16
2023-04-21T00:59:04.493Z,82.11
2023-04-21T01:01:34.569Z,83.97
2023-04-21T01:04:04.426Z,84.97
2023-04-21T01:06:34.360Z,83.91
2023-04-21T01:09:07.470Z,83.48
2023-04-21T01:11:37.498Z,84.35
2023-04-21T01:14:07.973Z,83.77
2023-04-21T01:16:37.803Z,85.75
2023-04-21T01:19:06.528Z,85.76
2023-04-21T01:21:40.798Z,84.29
2023-04-21T01:24:09.188Z,85.21
2023-04-21T01:26:37.734Z,84.76
2023-04-21T01:29:05.811Z,83.29
2023-04-21T01:31:34.344Z,79.95
2023-04-21T01:34:05.811Z,80.53
2023-04-21T01:36:34.404Z,80.92
2023-04-21T01:39:02.571Z,77.94
2023-04-21T01:41:30.974Z,77.44
2023-04-21T01:43:59.307Z,76.97
2023-04-21T01:46:27.342Z,76.11
2023-04-21T01:48:55.372Z,77.92
2023-04-21T01:51:23.738Z,77.11
2023-04-21T01:53:51.702Z,79.03
2023-04-21T01:56:19.821Z,77.24
2023-04-21T01:58:48.220Z,82.21
2023-04-21T02:01:16.263Z,79.83
2023-04-21T02:03:44.851Z,82.79
2023-04-21T02:06:14.351Z,82.13
2023-04-21T02:08:42.455Z,81.77
2023-04-21T02:11:10.911Z,80.91
2023-04-21T02:13:41.284Z,81.08
2023-04-21T02:16:13.889Z,82.15
2023-04-21T02:18:44.829Z,83.04
2023-04-21T02:21:13.339Z,82.83
2023-04-21T02:23:41.588Z,78.03
2023-04-21T02:26:09.591Z,81.11
2023-04-21T02:28:37.931Z,81.08
2023-04-21T02:31:06.248Z,82.06
2023-04-21T02:33:35.305Z,83.42
2023-04-21T02:36:04.539Z,83.98
2023-04-21T02:38:32.898Z,88.26
2023-04-21T02:41:00.887Z,86.06
2023-04-21T02:43:29.200Z,84.07
2023-04-21T02:45:57.274Z,83.28
2023-04-21T02:48:25.570Z,83.05
2023-04-21T02:50:53.999Z,86.52
2023-04-21T02:53:22.262Z,89.78
2023-04-21T02:55:51.879Z,91.08
2023-04-21T02:58:20.200Z,88.29
2023-04-21T03:00:48.169Z,85.24
2023-04-21T03:03:16.941Z,86.80
2023-04-21T03:05:45.551Z,85.52
2023-04-21T03:08:13.530Z,85.82
2023-04-21T03:10:42.024Z,85.38
2023-04-21T03:13:10.437Z,86.70
2023-04-21T03:15:38.576Z,85.22
2023-04-21T03:18:06.717Z,86.63
2023-04-21T03:20:35.165Z,85.29
2023-04-21T03:23:03.841Z,83.97
2023-04-21T03:25:31.899Z,79.27
2023-04-21T03:28:00.330Z,83.53
2023-04-21T03:30:28.358Z,83.11
2023-04-21T03:32:56.442Z,79.45
2023-04-21T03:35:24.891Z,81.92
2023-04-21T03:37:52.910Z,82.73
2023-04-21T03:40:21.467Z,83.65
2023-04-21T03:42:49.945Z,83.82
2023-04-21T03:45:22.731Z,82.37
2023-04-21T03:47:55.879Z,82.37
2023-04-21T03:50:24.066Z,79.58
2023-04-21T03:52:52.403Z,78.84
2023-04-21T03:55:20.523Z,79.84
2023-04-21T03:57:48.527Z,78.57
2023-04-21T04:00:17.149Z,78.92
2023-04-21T04:02:46.789Z,78.36
2023-04-21T04:05:14.996Z,77.02
2023-04-21T04:07:43.206Z,78.70
2023-04-21T04:10:12.154Z,78.00
2023-04-21T04:12:40.313Z,77.84
2023-04-21T04:15:08.664Z,80.78
2023-04-21T04:17:37.045Z,78.67
2023-04-21T04:20:08.197Z,81.40
2023-04-21T04:22:36.550Z,80.27
2023-04-21T04:25:05.509Z,83.72
2023-04-21T04:27:33.628Z,79.28
2023-04-21T04:30:02.038Z,81.40
2023-04-21T04:32:30.101Z,75.32
2023-04-21T04:34:59.070Z,67.27
2023-04-21T04:37:27.560Z,66.17
2023-04-21T04:39:55.695Z,63.49
2023-04-21T04:42:25.456Z,60.45
2023-04-21T04:44:54.455Z,57.01
2023-04-21T04:47:22.580Z,56.99
2023-04-21T04:49:50.637Z,56.86
2023-04-21T04:52:18.996Z,51.82
2023-04-21T04:54:47.001Z,53.57
2023-04-21T04:57:14.927Z,52.36
2023-04-21T04:59:43.306Z,52.60
2023-04-21T05:02:11.450Z,52.56
2023-04-21T05:04:39.913Z,52.47
2023-04-21T05:07:08.458Z,51.08
2023-04-21T05:09:36.539Z,53.47
2023-04-21T05:12:05.095Z,49.58
2023-04-21T05:14:33.631Z,51.03
2023-04-21T05:17:02.014Z,51.07
2023-04-21T05:19:30.140Z,47.17
2023-04-21T05:22:01.463Z,48.60
2023-04-21T05:24:29.648Z,46.24
2023-04-21T05:26:57.697Z,46.50
2023-04-21T05:29:26.005Z,45.67
2023-04-21T05:31:54.125Z,43.76
2023-04-21T05:34:22.249Z,44.34
2023-04-21T05:36:50.778Z,46.35
2023-04-21T05:39:18.907Z,47.51
2023-04-21T05:41:46.944Z,42.66
2023-04-21T05:44:18.151Z,45.20
2023-04-21T05:46:46.442Z,48.81
2023-04-21T05:49:14.464Z,48.34
2023-04-21T05:51:42.917Z,45.61
2023-04-21T05:54:10.940Z,44.58
2023-04-21T05:56:39.005Z,46.45
2023-04-21T05:59:07.462Z,45.36
2023-04-21T06:01:36.159Z,41.62
2023-04-21T06:04:04.806Z,43.89
2023-04-21T06:06:33.066Z,46.08
2023-04-21T06:09:01.425Z,41.57
2023-04-21T06:11:29.773Z,36.29
2023-04-21T06:13:59.834Z,37.77
2023-04-21T06:16:28.250Z,35.18
2023-04-21T06:18:59.206Z,37.35
2023-04-21T06:21:27.233Z,37.82
2023-04-21T06:23:55.340Z,34.80
2023-04-21T06:26:23.679Z,35.15
2023-04-21T06:28:51.621Z,34.58
2023-04-21T06:31:20.177Z,35.54
2023-04-21T06:33:48.671Z,32.93
2023-04-21T06:36:18.066Z,33.85
2023-04-21T06:38:46.242Z,34.38
2023-04-21T06:41:14.666Z,33.89
2023-04-21T06:43:42.653Z,33.65
2023-04-21T06:46:11.020Z,34.31
2023-04-21T06:48:39.338Z,34.44
2023-04-21T06:51:07.529Z,35.33
2023-04-21T06:53:35.609Z,34.31
2023-04-21T06:56:04.234Z,34.69
2023-04-21T06:58:32.203Z,36.35
2023-04-21T07:01:00.321Z,34.51
2023-04-21T07:03:29.029Z,36.66
2023-04-21T07:05:57.134Z,34.05
2023-04-21T07:08:25.575Z,33.56
2023-04-21T07:10:53.965Z,33.03
2023-04-21T07:13:22.102Z,31.75
2023-04-21T07:15:50.280Z,32.18
2023-04-21T07:18:18.910Z,32.55
2023-04-21T07:20:47.699Z,31.98
2023-04-21T07:23:16.265Z,30.57
2023-04-21T07:25:44.647Z,31.33
2023-04-21T07:28:15.663Z,31.54
2023-04-21T07:30:43.703Z,30.35
2023-04-21T07:33:12.301Z,29.48
2023-04-21T07:35:40.400Z,29.32
2023-04-21T07:38:08.447Z,30.78
2023-04-21T07:40:36.901Z,34.02
2023-04-21T07:43:05.280Z,29.65
2023-04-21T07:45:33.316Z,31.21
2023-04-21T07:48:01.851Z,35.08
2023-04-21T07:50:30.784Z,30.70
2023-04-21T07:53:00.575Z,34.54
2023-04-21T07:55:30.541Z,32.55
2023-04-21T07:58:00.129Z,33.92
2023-04-21T08:00:29.723Z,31.33
2023-04-21T08:03:02.401Z,30.06
2023-04-21T08:05:34.884Z,30.06
2023-04-21T08:08:07.882Z,33.49
2023-04-21T08:10:36.830Z,34.95
2023-04-21T08:13:06.633Z,34.74
2023-04-21T08:15:35.203Z,29.19
2023-04-21T08:18:03.641Z,29.22
2023-04-21T08:20:32.412Z,32.06
2023-04-21T08:23:01.997Z,33.77
2023-04-21T08:25:34.023Z,32.38
2023-04-21T08:28:04.408Z,30.63
2023-04-21T08:30:34.608Z,29.02
2023-04-21T08:33:03.097Z,34.31
2023-04-21T08:35:31.189Z,28.63
2023-04-21T08:37:59.106Z,31.16
2023-04-21T08:40:33.804Z,30.13
2023-04-21T08:43:02.008Z,27.37
2023-04-21T08:45:32.456Z,28.80
2023-04-21T08:48:02.188Z,30.40
2023-04-21T08:50:31.634Z,32.47
2023-04-21T08:52:59.906Z,27.68
2023-04-21T08:55:30.876Z,28.49
2023-04-21T08:57:59.244Z,30.88
2023-04-21T09:00:27.201Z,28.61
2023-04-21T09:03:01.685Z,26.13
2023-04-21T09:05:33.075Z,27.60
2023-04-21T09:08:20.455Z,25.78
2023-04-21T09:10:52.449Z,27.50
2023-04-21T09:13:23.463Z,26.34
2023-04-21T09:15:52.633Z,27.53
2023-04-21T09:18:23.108Z,30.75
2023-04-21T09:21:06.313Z,26.35
2023-04-21T09:23:51.987Z,27.42
2023-04-21T09:26:23.168Z,25.54
2023-04-21T09:28:53.282Z,25.96
2023-04-21T09:31:25.351Z,30.18
2023-04-21T09:34:00.006Z,26.28
2023-04-21T09:36:30.806Z,25.79
2023-04-21T09:39:29.146Z,26.21
2023-04-21T09:41:51.216Z,27.38
2023-04-21T09:44:19.934Z,25.47
2023-04-21T09:46:50.916Z,29.15
2023-04-21T09:49:19.470Z,25.85
2023-04-21T09:56:54.396Z,28.24
2023-04-21T09:59:27.841Z,31.51
2023-04-21T10:01:58.556Z,26.43
2023-04-21T10:04:29.757Z,26.43
2023-04-21T10:06:59.729Z,26.85
2023-04-21T10:09:56.683Z,24.35
2023-04-21T10:12:25.566Z,24.35
2023-04-21T10:14:57.440Z,25.25
2023-04-21T10:17:26.980Z,26.10
2023-04-21T10:19:57.700Z,26.40
2023-04-21T10:22:33.813Z,27.96
2023-04-21T10:25:03.791Z,25.56
2023-04-21T10:27:42.293Z,29.53
2023-04-21T10:30:20.010Z,29.66
2023-04-21T10:32:48.198Z,30.37
2023-04-21T10:35:23.231Z,25.53
2023-04-21T10:37:52.271Z,28.73
2023-04-21T10:40:44.239Z,24.79
2023-04-21T10:43:49.290Z,25.21
2023-04-21T10:46:37.542Z,28.34
2023-04-21T10:49:09.300Z,28.91
2023-04-21T10:52:06.072Z,24.76
2023-04-21T10:54:47.073Z,24.47
2023-04-21T10:57:19.753Z,23.57
2023-04-21T10:59:49.710Z,30.06
2023-04-21T11:02:19.426Z,26.29
2023-04-21T11:04:52.467Z,26.00
2023-04-21T11:07:24.966Z,24.83
2023-04-21T11:10:11.572Z,25.22
2023-04-21T11:12:41.615Z,28.43
2023-04-21T11:15:11.926Z,26.45
2023-04-21T11:17:43.627Z,25.50
2023-04-21T11:20:11.969Z,27.98
2023-04-21T11:22:40.494Z,24.86
2023-04-21T11:25:17.530Z,26.63
2023-04-21T11:27:55.079Z,23.92
2023-04-21T11:30:33.091Z,26.50
2023-04-21T11:33:01.795Z,24.85
2023-04-21T11:35:29.973Z,22.16
2023-04-21T11:37:58.190Z,22.67
2023-04-21T11:40:26.602Z,22.66
2023-04-21T11:42:54.891Z,24.49
2023-04-21T11:45:23.084Z,28.57
2023-04-21T11:47:51.585Z,30.12
2023-04-21T11:50:32.463Z,26.33
2023-04-21T11:53:02.847Z,31.21
2023-04-21T11:55:31.080Z,31.25
2023-04-21T11:57:59.480Z,32.53
2023-04-21T12:00:31.622Z,35.16
2023-04-21T12:03:00.306Z,35.00
2023-04-21T12:05:36.430Z,29.16
2023-04-21T12:08:06.536Z,27.19
2023-04-21T12:10:34.709Z,27.01
2023-04-21T12:13:03.170Z,28.26
2023-04-21T12:15:31.489Z,32.68
2023-04-21T12:17:59.663Z,30.01
2023-04-21T12:20:30.140Z,28.85
2023-04-21T12:22:58.870Z,27.73
2023-04-21T12:25:26.892Z,29.07
2023-04-21T12:27:58.756Z,29.36
2023-04-21T12:30:27.116Z,28.60
2023-04-21T12:32:56.089Z,29.75
2023-04-21T12:35:24.416Z,27.21
2023-04-21T12:37:52.864Z,26.68
2023-04-21T12:40:21.001Z,28.21
2023-04-21T12:42:49.184Z,31.96
2023-04-21T12:45:17.586Z,34.86
2023-04-21T12:47:46.902Z,36.44
2023-04-21T12:50:16.396Z,35.08
2023-04-21T12:52:44.936Z,35.47
2023-04-21T12:55:13.837Z,33.72
2023-04-21T12:57:42.136Z,32.83
2023-04-21T13:00:13.272Z,34.55
2023-04-21T13:02:42.104Z,30.22
2023-04-21T13:05:12.286Z,29.95
2023-04-21T13:07:40.357Z,30.92
2023-04-21T13:10:08.825Z,29.82
2023-04-21T13:12:37.480Z,33.10
2023-04-21T13:15:06.227Z,30.47
2023-04-21T13:17:34.313Z,32.28
2023-04-21T13:20:02.724Z,33.77
2023-04-21T13:22:31.012Z,32.81
2023-04-21T13:25:01.244Z,33.96
2023-04-21T13:27:29.633Z,31.33
2023-04-21T13:29:57.912Z,32.21
2023-04-21T13:32:26.166Z,33.33
2023-04-21T13:34:55.058Z,31.75
2023-04-21T13:37:23.118Z,32.34
2023-04-21T13:39:51.247Z,32.12
2023-04-21T13:42:19.817Z,35.68
2023-04-21T13:44:47.929Z,35.03
2023-04-21T13:47:16.078Z,32.12
2023-04-21T13:49:44.498Z,33.86
2023-04-21T13:52:12.598Z,32.28
2023-04-21T13:54:40.641Z,32.58
2023-04-21T13:57:09.198Z,30.89
2023-04-21T13:59:37.276Z,34.24
2023-04-21T14:02:05.352Z,32.96
2023-04-21T14:04:33.976Z,31.29
2023-04-21T14:07:02.289Z,30.35
2023-04-21T14:09:30.369Z,35.70
2023-04-21T14:11:58.775Z,36.66
2023-04-21T14:14:37.983Z,36.67
2023-04-21T14:17:08.092Z,37.09
2023-04-21T14:19:36.866Z,37.17
2023-04-21T14:22:05.790Z,40.58
2023-04-21T14:24:34.290Z,37.42
2023-04-21T14:27:02.594Z,36.43
2023-04-21T14:29:30.836Z,34.59
2023-04-21T14:31:59.701Z,34.32
2023-04-21T14:34:27.942Z,36.14
2023-04-21T14:36:56.760Z,37.23
2023-04-21T14:39:25.204Z,39.06
2023-04-21T14:41:53.199Z,38.34
2023-04-21T14:44:21.476Z,36.73
2023-04-21T14:47:00.874Z,39.99
2023-04-21T14:49:38.167Z,41.04
2023-04-21T14:52:07.335Z,40.44
2023-04-21T14:54:35.552Z,39.46
2023-04-21T14:57:18.924Z,37.42
2023-04-21T14:59:53.159Z,39.33
2023-04-21T15:02:22.031Z,37.91
2023-04-21T15:04:50.912Z,40.90
2023-04-21T15:07:23.324Z,37.74
2023-04-21T15:09:53.056Z,36.83
2023-04-21T15:12:21.300Z,38.62
2023-04-21T15:14:49.526Z,39.37
2023-04-21T15:17:18.012Z,37.96
2023-04-21T15:19:46.096Z,38.42
2023-04-21T15:22:15.429Z,40.12
2023-04-21T15:24:44.044Z,39.76
2023-04-21T15:27:12.243Z,40.26
2023-04-21T15:29:40.580Z,39.23
2023-04-21T15:32:09.131Z,38.38
2023-04-21T15:34:37.115Z,40.00
2023-04-21T15:37:05.195Z,36.56
2023-04-21T15:39:33.773Z,37.32
2023-04-21T15:42:02.116Z,40.24
2023-04-21T15:44:30.173Z,35.74
2023-04-21T15:46:58.774Z,39.21
2023-04-21T15:49:26.957Z,40.73
2023-04-21T15:51:56.752Z,39.08
2023-04-21T15:54:25.142Z,39.22
2023-04-21T15:56:53.160Z,36.85
2023-04-21T15:59:23.067Z,34.75
2023-04-21T16:01:53.083Z,38.04
2023-04-21T16:04:21.752Z,39.79
2023-04-21T16:06:49.989Z,39.24
2023-04-21T16:09:18.510Z,39.31
2023-04-21T16:11:47.112Z,42.09
2023-04-21T16:14:16.775Z,41.80
2023-04-21T16:16:45.658Z,42.17
2023-04-21T16:19:14.037Z,45.86
2023-04-21T16:21:43.571Z,48.05
2023-04-21T16:24:11.759Z,50.98
2023-04-21T16:26:40.700Z,52.41
2023-04-21T16:29:08.797Z,50.31
2023-04-21T16:31:36.936Z,50.65
2023-04-21T16:34:05.874Z,51.99
2023-04-21T16:36:33.954Z,55.23
2023-04-21T16:39:02.114Z,56.84
2023-04-21T16:41:30.785Z,59.49
2023-04-21T16:43:58.760Z,58.06
2023-04-21T16:46:26.753Z,53.21
2023-04-21T16:48:55.255Z,51.98
2023-04-21T16:51:23.356Z,54.25
2023-04-21T16:53:51.362Z,53.55
2023-04-21T16:56:20.578Z,50.45
2023-04-21T16:58:48.526Z,55.73
2023-04-21T17:01:16.573Z,58.30
2023-04-21T17:03:45.243Z,57.05
2023-04-21T17:06:17.473Z,54.77
2023-04-21T17:08:45.917Z,53.95
2023-04-21T17:11:14.066Z,52.58
2023-04-21T17:13:42.097Z,53.91
2023-04-21T17:16:10.874Z,56.15
2023-04-21T17:18:38.865Z,60.56
2023-04-21T17:21:06.882Z,55.63
2023-04-21T17:23:35.318Z,56.84
2023-04-21T17:26:05.341Z,60.27
2023-04-21T17:28:33.798Z,64.45
2023-04-21T17:31:14.492Z,64.77
2023-04-21T17:33:44.475Z,64.31
2023-04-21T17:36:13.431Z,65.72
2023-04-21T17:38:43.080Z,63.92
2023-04-21T17:41:11.794Z,63.14
2023-04-21T17:43:40.355Z,59.87
2023-04-21T17:46:08.587Z,62.08
2023-04-21T17:48:36.759Z,64.19
2023-04-21T17:51:05.129Z,66.33
2023-04-21T17:53:33.426Z,67.19
2023-04-21T17:56:01.810Z,68.88
2023-04-21T17:58:30.277Z,68.34
2023-04-21T18:00:58.302Z,67.28
2023-04-21T18:03:27.601Z,64.03
2023-04-21T18:05:57.460Z,67.82
2023-04-21T18:08:28.285Z,70.95
2023-04-21T18:10:58.059Z,73.14
2023-04-21T18:13:26.148Z,69.88
2023-04-21T18:15:54.217Z,67.00
2023-04-21T18:18:22.587Z,65.41
2023-04-21T18:20:50.835Z,71.83
2023-04-21T18:23:18.813Z,74.69
2023-04-21T18:25:47.347Z,76.60
2023-04-21T18:28:15.450Z,77.68
2023-04-21T18:30:43.654Z,79.01
2023-04-21T18:33:12.428Z,75.18
2023-04-21T18:35:41.818Z,75.54
2023-04-21T18:38:11.956Z,78.25
2023-04-21T18:40:41.132Z,78.87
2023-04-21T18:43:10.076Z,75.00
2023-04-21T18:45:38.865Z,78.41
2023-04-21T18:48:07.708Z,81.38
2023-04-21T18:50:40.296Z,82.96
2023-04-21T18:53:09.416Z,83.74
2023-04-21T18:55:37.966Z,80.73
2023-04-21T18:58:06.345Z,79.07
2023-04-21T19:00:37.726Z,78.35
2023-04-21T19:03:06.596Z,79.61
2023-04-21T19:05:36.899Z,79.99
2023-04-21T19:08:05.554Z,79.21
2023-04-21T19:10:37.782Z,77.83
2023-04-21T19:13:06.295Z,76.84
2023-04-21T19:15:35.294Z,79.54
2023-04-21T19:18:03.383Z,80.97
2023-04-21T19:20:32.655Z,77.95
2023-04-21T19:23:00.694Z,77.60
2023-04-21T19:25:28.822Z,80.54
2023-04-21T19:27:57.540Z,78.13
2023-04-21T19:30:25.573Z,76.30
2023-04-21T19:32:55.048Z,77.21
2023-04-21T19:35:23.563Z,80.82
2023-04-21T19:37:51.657Z,80.47
2023-04-21T19:40:19.979Z,80.91
2023-04-21T19:42:48.311Z,81.74
2023-04-21T19:45:16.926Z,85.05
2023-04-21T19:47:45.145Z,85.42
2023-04-21T19:50:13.555Z,85.51
2023-04-21T19:52:42.022Z,86.62
2023-04-21T19:55:10.068Z,82.97
2023-04-21T19:57:38.458Z,83.10
2023-04-21T20:00:09.485Z,83.51
2023-04-21T20:02:40.649Z,85.80
2023-04-21T20:05:09.644Z,83.64
2023-04-21T20:07:38.237Z,86.92
2023-04-21T20:10:07.571Z,88.61
2023-04-21T20:12:36.064Z,87.96
2023-04-21T20:15:04.253Z,88.31
2023-04-21T20:17:32.768Z,86.17
2023-04-21T20:20:01.518Z,86.67
2023-04-21T20:22:29.624Z,86.69
2023-04-21T20:24:58.323Z,86.50
2023-04-21T20:27:27.199Z,86.75
2023-04-21T20:29:55.230Z,85.71
2023-04-21T20:32:23.363Z,86.12
2023-04-21T20:34:53.672Z,86.91
2023-04-21T20:37:23.420Z,86.47
2023-04-21T20:39:52.104Z,88.47
2023-04-21T20:42:22.039Z,88.03
2023-04-21T20:44:49.992Z,87.73
2023-04-21T20:47:18.357Z,88.11
2023-04-21T20:49:47.697Z,89.11
2023-04-21T20:52:16.219Z,91.32
2023-04-21T20:54:44.707Z,90.17
2023-04-21T20:57:12.756Z,88.59
2023-04-21T21:02:09.423Z,87.49
2023-04-21T21:04:37.584Z,88.18
2023-04-21T21:07:05.554Z,86.80
2023-04-21T21:09:34.097Z,85.26
2023-04-21T21:12:02.676Z,87.03
2023-04-21T21:14:30.948Z,87.34
2023-04-21T21:16:59.456Z,86.70
2023-04-21T21:19:27.509Z,88.11
2023-04-21T21:21:55.510Z,89.03
2023-04-21T21:24:25.138Z,86.95
2023-04-21T21:26:53.263Z,87.76
2023-04-21T21:29:21.239Z,88.85
2023-04-21T21:31:49.607Z,88.91
2023-04-21T21:34:17.602Z,89.42
2023-04-21T21:36:45.677Z,88.92
2023-04-21T21:39:14.469Z,89.89
2023-04-21T21:41:42.518Z,88.76
2023-04-21T21:44:10.755Z,89.85
2023-04-21T21:46:39.317Z,94.17
2023-04-21T21:49:07.476Z,92.63
2023-04-21T21:51:35.536Z,92.25
2023-04-21T21:54:03.943Z,92.00
2023-04-21T21:56:32.063Z,89.21
2023-04-21T21:59:00.121Z,91.27
2023-04-21T22:01:28.511Z,90.34
2023-04-21T22:03:57.166Z,92.01
2023-04-21T22:06:27.068Z,89.57
2023-04-21T22:08:55.156Z,91.01
2023-04-21T22:11:24.335Z,93.42
2023-04-21T22:13:52.354Z,91.73
2023-04-21T22:16:20.389Z,90.07
2023-04-21T22:18:49.047Z,91.09
2023-04-21T22:21:16.999Z,93.82
2023-04-21T22:23:45.259Z,94.32
2023-04-21T22:26:13.620Z,95.65
2023-04-21T22:28:42.001Z,94.55
2023-04-21T22:31:10.693Z,94.32
2023-04-21T22:33:39.120Z,91.35
2023-04-21T22:36:09.731Z,93.52
2023-04-21T22:38:38.715Z,93.39
2023-04-21T22:41:06.953Z,92.94
2023-04-21T22:43:35.087Z,93.97
2023-04-21T22:46:03.539Z,92.17
2023-04-21T22:48:32.986Z,91.32
2023-04-21T22:51:01.777Z,91.96
2023-04-21T22:53:30.227Z,92.85
2023-04-21T22:55:58.291Z,93.64
2023-04-21T22:58:26.662Z,94.24
2023-04-21T23:00:55.102Z,93.95
2023-04-21T23:03:23.960Z,92.04
2023-04-21T23:05:52.154Z,94.41
2023-04-21T23:08:20.487Z,94.14
2023-04-21T23:10:48.574Z,96.31
2023-04-21T23:13:16.609Z,95.95
2023-04-21T23:15:45.054Z,92.50
2023-04-21T23:18:13.088Z,91.64
2023-04-21T23:20:41.127Z,92.83
2023-04-21T23:23:09.725Z,92.79
2023-04-21T23:25:37.744Z,95.36
2023-04-21T23:28:05.849Z,94.96
2023-04-21T23:30:34.247Z,94.57
2023-04-21T23:33:02.542Z,90.52
2023-04-21T23:35:30.963Z,90.93
2023-04-21T23:37:59.355Z,91.15
2023-04-21T23:40:27.486Z,92.47
2023-04-21T23:42:55.703Z,92.72
2023-04-21T23:45:24.083Z,91.38
2023-04-21T23:47:52.273Z,90.00
2023-04-21T23:50:20.278Z,86.24
2023-04-21T23:52:49.286Z,86.81
2023-04-21T23:55:17.429Z,84.77
2023-04-21T23:57:47.099Z,88.56
